createdAt,value
2022-07-29T00:01:04.872Z,15.70
2022-07-29T00:03:31.974Z,15.70
2022-07-29T00:05:59.037Z,15.80
2022-07-29T00:08:27.754Z,15.90
2022-07-29T00:10:54.766Z,15.80
2022-07-29T00:13:32.601Z,15.80
2022-07-29T00:16:04.486Z,15.80
2022-07-29T00:18:32.262Z,15.80
2022-07-29T00:20:59.185Z,15.80
2022-07-29T00:23:26.111Z,15.80
2022-07-29T00:25:53.047Z,15.70
2022-07-29T00:28:19.964Z,15.80
2022-07-29T00:30:46.958Z,15.70
2022-07-29T00:33:13.904Z,15.60
2022-07-29T00:35:47.384Z,15.60
2022-07-29T00:38:18.082Z,15.60
2022-07-29T00:40:45.150Z,15.60
2022-07-29T00:43:12.419Z,15.60
2022-07-29T00:45:39.373Z,15.70
2022-07-29T00:48:06.597Z,15.70
2022-07-29T00:50:33.579Z,15.80
2022-07-29T00:53:00.599Z,15.90
2022-07-29T00:55:27.621Z,15.90
2022-07-29T00:57:54.604Z,16.00
2022-07-29T01:00:23.735Z,16.00
2022-07-29T01:02:50.768Z,16.00
2022-07-29T01:05:18.146Z,16.00
2022-07-29T01:07:44.970Z,16.00
2022-07-29T01:10:12.780Z,15.90
2022-07-29T01:12:39.935Z,15.80
2022-07-29T01:15:07.854Z,15.80
2022-07-29T01:17:40.528Z,15.60
2022-07-29T01:20:22.878Z,15.60
2022-07-29T01:22:58.248Z,15.50
2022-07-29T01:25:28.278Z,15.50
2022-07-29T01:28:18.842Z,15.40
2022-07-29T01:30:46.024Z,15.40
2022-07-29T01:33:34.532Z,15.30
2022-07-29T01:38:47.622Z,15.40
2022-07-29T01:41:15.782Z,15.50
2022-07-29T01:43:47.971Z,15.50
2022-07-29T01:46:15.787Z,15.50
2022-07-29T01:48:42.761Z,15.60
2022-07-29T01:51:13.648Z,15.50
2022-07-29T01:53:43.981Z,15.30
2022-07-29T01:56:10.970Z,15.30
2022-07-29T01:58:37.988Z,15.10
2022-07-29T02:01:04.921Z,15.10
2022-07-29T02:03:31.830Z,15.10
2022-07-29T02:05:58.761Z,15.00
2022-07-29T02:08:25.653Z,15.10
2022-07-29T02:10:52.659Z,15.10
2022-07-29T02:13:19.661Z,15.10
2022-07-29T02:15:46.679Z,15.10
2022-07-29T02:18:20.249Z,15.00
2022-07-29T02:20:48.350Z,15.00
2022-07-29T02:23:16.166Z,15.00
2022-07-29T02:25:43.215Z,15.00
2022-07-29T02:28:10.133Z,15.10
2022-07-29T02:30:37.845Z,15.00
2022-07-29T02:33:04.859Z,15.10
2022-07-29T02:35:34.987Z,15.10
2022-07-29T02:38:20.654Z,15.20
2022-07-29T02:40:47.602Z,15.30
2022-07-29T02:43:14.620Z,15.50
2022-07-29T02:45:41.583Z,15.50
2022-07-29T02:48:11.734Z,15.50
2022-07-29T02:50:39.592Z,15.50
2022-07-29T02:53:07.179Z,15.40
2022-07-29T02:55:41.892Z,15.50
2022-07-29T02:58:08.827Z,15.40
2022-07-29T03:00:37.046Z,15.50
2022-07-29T03:03:04.945Z,15.50
2022-07-29T03:05:31.888Z,15.50
2022-07-29T03:08:00.152Z,15.60
2022-07-29T03:10:27.115Z,15.70
2022-07-29T03:12:54.245Z,15.70
2022-07-29T03:15:21.232Z,15.70
2022-07-29T03:17:52.054Z,15.70
2022-07-29T03:20:19.033Z,15.70
2022-07-29T03:22:48.240Z,15.80
2022-07-29T03:25:16.218Z,15.80
2022-07-29T03:27:43.205Z,15.80
2022-07-29T03:30:10.397Z,15.80
2022-07-29T03:32:37.611Z,15.80
2022-07-29T03:35:05.462Z,15.80
2022-07-29T03:37:32.946Z,15.80
2022-07-29T03:39:59.937Z,15.60
2022-07-29T03:42:33.878Z,15.70
2022-07-29T03:45:02.013Z,15.30
2022-07-29T03:47:39.296Z,15.20
2022-07-29T03:50:15.953Z,15.10
2022-07-29T03:52:42.896Z,15.20
2022-07-29T03:55:12.432Z,15.10
2022-07-29T03:57:39.497Z,15.00
2022-07-29T04:00:07.070Z,15.00
2022-07-29T04:02:34.482Z,15.00
2022-07-29T04:05:01.424Z,15.10
2022-07-29T04:07:28.624Z,15.10
2022-07-29T04:09:55.603Z,15.10
2022-07-29T04:12:22.510Z,15.10
2022-07-29T04:14:49.919Z,15.10
2022-07-29T04:17:16.883Z,15.10
2022-07-29T04:19:43.789Z,15.00
2022-07-29T04:22:10.699Z,14.90
2022-07-29T04:24:37.666Z,14.90
2022-07-29T04:27:04.869Z,14.90
2022-07-29T04:29:31.799Z,14.90
2022-07-29T04:31:58.749Z,15.00
2022-07-29T04:34:28.112Z,15.00
2022-07-29T04:36:55.465Z,15.10
2022-07-29T04:39:23.315Z,15.00
2022-07-29T04:41:52.594Z,15.10
2022-07-29T04:44:21.988Z,15.40
2022-07-29T04:46:55.441Z,15.40
2022-07-29T04:49:22.450Z,15.50
2022-07-29T04:51:49.403Z,15.60
2022-07-29T04:54:16.710Z,15.70
2022-07-29T04:56:43.978Z,15.80
2022-07-29T04:59:10.933Z,15.90
2022-07-29T05:01:40.287Z,16.00
2022-07-29T05:04:07.301Z,16.10
2022-07-29T05:06:34.201Z,16.20
2022-07-29T05:09:01.175Z,16.10
2022-07-29T05:11:30.515Z,16.10
2022-07-29T05:13:57.657Z,16.10
2022-07-29T05:16:24.707Z,16.20
2022-07-29T05:18:51.831Z,16.20
2022-07-29T05:21:18.734Z,16.30
2022-07-29T05:23:45.669Z,16.20
2022-07-29T05:26:13.221Z,16.10
2022-07-29T05:28:40.217Z,16.00
2022-07-29T05:31:07.401Z,16.00
2022-07-29T05:33:37.062Z,16.00
2022-07-29T05:36:08.606Z,16.00
2022-07-29T05:38:36.680Z,16.10
2022-07-29T05:41:04.052Z,16.10
2022-07-29T05:43:31.171Z,16.10
2022-07-29T05:45:58.308Z,16.10
2022-07-29T05:48:25.554Z,16.20
2022-07-29T05:50:52.630Z,16.20
2022-07-29T05:53:20.825Z,16.30
2022-07-29T05:55:50.624Z,16.20
2022-07-29T05:58:17.657Z,16.20
2022-07-29T06:00:44.640Z,16.20
2022-07-29T06:03:11.819Z,16.20
2022-07-29T06:05:39.030Z,16.10
2022-07-29T06:08:08.393Z,16.30
2022-07-29T06:10:39.398Z,16.00
2022-07-29T06:13:06.494Z,15.90
2022-07-29T06:15:33.539Z,15.90
2022-07-29T06:18:01.656Z,16.00
2022-07-29T06:20:32.698Z,16.20
2022-07-29T06:23:00.075Z,16.20
2022-07-29T06:25:27.538Z,16.20
2022-07-29T06:27:55.701Z,16.20
2022-07-29T06:30:22.916Z,16.20
2022-07-29T06:32:50.599Z,16.10
2022-07-29T06:35:42.103Z,16.10
2022-07-29T06:38:07.318Z,16.00
2022-07-29T06:41:04.149Z,16.00
2022-07-29T06:43:33.253Z,16.10
2022-07-29T06:46:04.665Z,16.10
2022-07-29T06:48:31.768Z,16.10
2022-07-29T06:50:58.786Z,16.20
2022-07-29T06:53:26.443Z,16.20
2022-07-29T06:55:53.384Z,16.20
2022-07-29T06:58:21.619Z,16.20
2022-07-29T07:00:48.981Z,16.30
2022-07-29T07:03:16.397Z,16.40
2022-07-29T07:05:43.595Z,16.40
2022-07-29T07:08:10.629Z,16.40
2022-07-29T07:10:37.603Z,16.40
2022-07-29T07:13:04.576Z,16.30
2022-07-29T07:15:38.936Z,16.30
2022-07-29T07:18:09.819Z,16.30
2022-07-29T07:20:36.850Z,16.20
2022-07-29T07:23:03.838Z,16.20
2022-07-29T07:25:30.776Z,16.20
2022-07-29T07:27:57.731Z,16.20
2022-07-29T07:30:24.662Z,16.20
2022-07-29T07:32:51.784Z,16.20
2022-07-29T07:35:18.875Z,16.20
2022-07-29T07:37:45.783Z,16.20
2022-07-29T07:40:12.999Z,16.30
2022-07-29T07:42:45.588Z,16.70
2022-07-29T07:45:14.105Z,16.40
2022-07-29T07:47:43.728Z,16.40
2022-07-29T07:50:15.127Z,16.50
2022-07-29T07:52:49.411Z,16.50
2022-07-29T07:55:16.409Z,16.60
2022-07-29T07:57:43.544Z,16.10
2022-07-29T08:00:17.272Z,16.60
2022-07-29T08:02:46.207Z,16.90
2022-07-29T08:05:17.065Z,16.60
2022-07-29T08:07:45.456Z,16.60
2022-07-29T08:10:12.606Z,16.50
2022-07-29T08:12:39.541Z,16.60
2022-07-29T08:15:08.791Z,16.70
2022-07-29T08:17:35.761Z,16.80
2022-07-29T08:20:02.760Z,16.90
2022-07-29T08:22:29.951Z,17.10
2022-07-29T08:24:57.459Z,17.20
2022-07-29T08:27:43.099Z,17.50
2022-07-29T08:30:11.579Z,17.60
2022-07-29T08:32:55.016Z,17.80
2022-07-29T08:35:23.029Z,18.00
2022-07-29T08:37:50.049Z,18.20
2022-07-29T08:40:17.300Z,18.20
2022-07-29T08:42:44.276Z,18.50
2022-07-29T08:45:11.503Z,18.70
2022-07-29T08:47:40.923Z,18.90
2022-07-29T08:50:08.559Z,19.30
2022-07-29T08:52:37.260Z,19.50
2022-07-29T08:55:04.645Z,19.50
2022-07-29T08:57:31.566Z,19.60
2022-07-29T09:00:06.248Z,19.70
2022-07-29T09:02:36.641Z,19.80
2022-07-29T09:05:04.289Z,19.90
2022-07-29T09:07:32.994Z,20.00
2022-07-29T09:10:02.173Z,19.80
2022-07-29T09:12:31.158Z,19.80
2022-07-29T09:15:00.605Z,19.90
2022-07-29T09:17:43.599Z,20.10
2022-07-29T09:20:20.620Z,20.20
2022-07-29T09:22:50.662Z,20.40
2022-07-29T09:25:33.050Z,20.60
2022-07-29T09:28:09.661Z,20.70
2022-07-29T09:30:36.730Z,20.80
2022-07-29T09:33:04.047Z,20.80
2022-07-29T09:35:31.438Z,20.80
2022-07-29T09:37:58.322Z,20.90
2022-07-29T09:40:26.145Z,20.90
2022-07-29T09:42:53.993Z,21.00
2022-07-29T09:45:29.986Z,21.10
2022-07-29T09:47:58.581Z,21.20
2022-07-29T09:50:35.793Z,21.40
2022-07-29T09:53:02.645Z,21.60
2022-07-29T09:55:29.518Z,21.80
2022-07-29T09:57:56.385Z,22.00
2022-07-29T10:00:24.194Z,22.10
2022-07-29T10:02:51.136Z,22.40
2022-07-29T10:05:23.875Z,23.00
2022-07-29T10:07:57.458Z,23.60
2022-07-29T10:10:27.793Z,24.20
2022-07-29T10:12:55.629Z,24.50
2022-07-29T10:15:23.171Z,24.40
2022-07-29T10:17:50.317Z,24.40
2022-07-29T10:20:17.423Z,24.50
2022-07-29T10:22:52.981Z,24.50
2022-07-29T10:25:20.868Z,24.60
2022-07-29T10:27:47.924Z,24.60
2022-07-29T10:30:15.846Z,24.50
2022-07-29T10:33:01.480Z,24.40
2022-07-29T10:35:31.352Z,24.40
2022-07-29T10:38:01.231Z,24.30
2022-07-29T10:40:52.779Z,24.20
2022-07-29T10:43:37.324Z,24.00
2022-07-29T10:46:04.799Z,23.80
2022-07-29T10:48:34.387Z,23.70
2022-07-29T10:51:05.243Z,23.70
2022-07-29T10:53:49.201Z,23.30
2022-07-29T10:59:44.760Z,23.70
2022-07-29T11:02:41.807Z,23.80
2022-07-29T11:05:17.532Z,23.80
2022-07-29T11:08:04.368Z,23.70
2022-07-29T11:10:33.368Z,23.60
2022-07-29T11:13:00.306Z,23.50
2022-07-29T11:15:28.442Z,23.40
2022-07-29T11:17:59.461Z,23.40
2022-07-29T11:20:33.368Z,23.40
2022-07-29T11:23:00.323Z,23.40
2022-07-29T11:25:43.062Z,23.40
2022-07-29T11:28:22.791Z,23.30
2022-07-29T11:30:53.039Z,23.20
2022-07-29T11:33:54.554Z,23.20
2022-07-29T11:36:17.130Z,23.30
2022-07-29T11:38:44.438Z,23.40
2022-07-29T11:41:27.421Z,23.50
2022-07-29T11:46:49.979Z,23.70
2022-07-29T11:49:32.014Z,23.80
2022-07-29T11:52:02.838Z,23.90
2022-07-29T11:54:52.124Z,23.90
2022-07-29T11:57:21.919Z,23.80
2022-07-29T11:59:49.005Z,23.70
2022-07-29T12:02:37.511Z,23.90
2022-07-29T12:05:10.763Z,24.10
2022-07-29T12:07:03.521Z,23.60
2022-07-29T12:07:50.542Z,24.60
2022-07-29T12:10:19.701Z,24.90
2022-07-29T12:12:52.069Z,25.10
2022-07-29T12:15:22.395Z,25.00
2022-07-29T12:17:49.513Z,24.90
2022-07-29T12:20:26.716Z,24.70
2022-07-29T12:22:55.580Z,24.50
2022-07-29T12:25:38.766Z,24.50
2022-07-29T12:28:06.737Z,24.40
2022-07-29T12:30:37.344Z,24.30
2022-07-29T12:33:10.780Z,24.30
2022-07-29T12:35:37.605Z,24.30
2022-07-29T12:38:04.424Z,24.30
2022-07-29T12:40:31.414Z,24.30
2022-07-29T12:43:11.741Z,24.30
2022-07-29T12:45:39.250Z,24.30
2022-07-29T12:48:06.499Z,24.20
2022-07-29T12:50:33.579Z,24.10
2022-07-29T12:53:13.112Z,24.00
2022-07-29T12:55:43.836Z,24.00
2022-07-29T12:58:10.703Z,24.00
2022-07-29T13:00:37.689Z,24.00
2022-07-29T13:03:04.580Z,23.90
2022-07-29T13:05:45.774Z,23.90
2022-07-29T13:08:20.099Z,23.90
2022-07-29T13:10:49.059Z,23.80
2022-07-29T13:13:16.401Z,23.80
2022-07-29T13:15:44.209Z,23.80
2022-07-29T13:18:29.697Z,23.80
2022-07-29T13:20:56.666Z,23.80
2022-07-29T13:23:23.681Z,23.80
2022-07-29T14:01:47.742Z,23.40
2022-07-29T14:04:15.010Z,23.50
2022-07-29T14:06:42.730Z,23.50
2022-07-29T14:09:10.742Z,23.40
2022-07-29T14:11:39.559Z,23.40
2022-07-29T14:14:06.658Z,23.40
2022-07-29T14:16:34.000Z,23.40
2022-07-29T14:19:01.149Z,23.40
2022-07-29T14:21:28.566Z,23.40
2022-07-29T14:23:57.261Z,23.40
2022-07-29T14:26:25.356Z,23.40
2022-07-29T14:28:52.485Z,23.50
2022-07-29T14:31:19.598Z,23.50
2022-07-29T14:33:49.321Z,23.50
2022-07-29T14:36:16.693Z,23.50
2022-07-29T14:38:43.748Z,23.50
2022-07-29T14:41:10.884Z,23.50
2022-07-29T14:43:37.912Z,23.40
2022-07-29T14:46:08.328Z,23.40
2022-07-29T14:48:36.156Z,23.40
2022-07-29T14:51:04.894Z,23.40
2022-07-29T14:53:32.170Z,23.40
2022-07-29T14:56:15.056Z,23.40
2022-07-29T14:58:51.885Z,23.30
2022-07-29T15:01:19.406Z,23.30
2022-07-29T15:03:46.952Z,23.20
2022-07-29T15:06:13.939Z,23.20
2022-07-29T15:08:40.964Z,23.40
2022-07-29T15:11:07.966Z,23.20
2022-07-29T15:13:35.216Z,23.20
2022-07-29T15:16:02.217Z,23.30
2022-07-29T15:18:29.183Z,23.30
2022-07-29T15:20:56.212Z,23.30
2022-07-29T15:23:23.188Z,23.30
2022-07-29T15:25:50.158Z,23.30
2022-07-29T15:28:17.095Z,23.30
2022-07-29T15:30:44.026Z,23.30
2022-07-29T15:33:11.174Z,23.40
2022-07-29T15:35:40.381Z,23.30
2022-07-29T15:38:07.890Z,23.30
2022-07-29T15:40:34.912Z,23.40
2022-07-29T15:43:06.761Z,23.70
2022-07-29T15:45:41.058Z,23.80
2022-07-29T15:48:09.144Z,24.20
2022-07-29T15:50:36.226Z,24.50
2022-07-29T15:53:03.260Z,24.70
2022-07-29T15:55:30.180Z,25.00
2022-07-29T15:58:00.456Z,25.00
2022-07-29T16:00:27.837Z,24.90
2022-07-29T16:02:54.884Z,25.20
2022-07-29T16:05:22.272Z,25.20
2022-07-29T16:13:32.445Z,24.70
2022-07-29T16:16:01.919Z,24.40
2022-07-29T16:18:30.656Z,24.40
2022-07-29T16:20:57.976Z,24.20
2022-07-29T16:23:25.248Z,24.00
2022-07-29T16:26:01.034Z,23.90
2022-07-29T16:28:29.262Z,23.80
2022-07-29T16:30:57.341Z,23.80
2022-07-29T16:33:24.530Z,23.70
2022-07-29T16:35:51.910Z,23.50
2022-07-29T16:38:19.293Z,23.40
2022-07-29T16:40:46.347Z,23.40
2022-07-29T16:43:13.438Z,23.30
2022-07-29T16:45:46.118Z,23.20
2022-07-29T16:48:14.887Z,23.10
2022-07-29T16:50:43.377Z,23.00
2022-07-29T16:53:10.807Z,23.00
2022-07-29T16:55:38.267Z,23.00
2022-07-29T16:58:05.517Z,23.00
2022-07-29T17:00:32.635Z,23.10
2022-07-29T17:03:00.308Z,23.10
2022-07-29T17:05:28.023Z,23.20
2022-07-29T17:07:55.203Z,23.20
2022-07-29T17:10:22.512Z,23.20
2022-07-29T17:12:49.835Z,23.40
2022-07-29T17:15:18.727Z,23.40
2022-07-29T17:17:55.542Z,23.50
2022-07-29T17:20:23.720Z,23.70
2022-07-29T17:22:50.762Z,23.70
2022-07-29T17:25:20.435Z,23.70
2022-07-29T17:27:50.611Z,23.50
2022-07-29T17:30:18.160Z,23.50
2022-07-29T17:32:45.179Z,23.50
2022-07-29T17:35:30.521Z,23.40
2022-07-29T17:37:57.586Z,23.40
2022-07-29T17:40:24.914Z,23.20
2022-07-29T17:42:52.115Z,23.30
2022-07-29T17:45:19.477Z,22.90
2022-07-29T17:47:46.739Z,22.90
2022-07-29T17:50:14.010Z,22.80
2022-07-29T17:52:41.248Z,22.90
2022-07-29T17:55:11.310Z,22.60
2022-07-29T17:57:38.346Z,22.60
2022-07-29T18:00:08.302Z,22.40
2022-07-29T18:02:37.785Z,22.40
2022-07-29T18:05:05.455Z,22.30
2022-07-29T18:07:34.219Z,22.30
2022-07-29T18:10:01.724Z,22.30
2022-07-29T18:12:28.830Z,22.20
2022-07-29T18:14:55.941Z,22.00
2022-07-29T18:17:22.965Z,21.90
2022-07-29T18:20:10.799Z,21.80
2022-07-29T18:22:37.869Z,21.70
2022-07-29T18:28:52.456Z,21.50
2022-07-29T18:31:19.748Z,21.20
2022-07-29T18:33:46.774Z,21.10
2022-07-29T18:36:13.790Z,20.90
2022-07-29T18:38:41.407Z,20.70
2022-07-29T18:41:08.463Z,20.50
2022-07-29T18:43:35.524Z,20.50
2022-07-29T18:46:02.769Z,20.50
2022-07-29T18:48:29.773Z,20.60
2022-07-29T18:50:56.831Z,20.50
2022-07-29T18:53:23.899Z,20.40
2022-07-29T18:55:50.913Z,20.30
2022-07-29T18:58:17.952Z,20.20
2022-07-29T19:00:45.034Z,20.10
2022-07-29T19:03:12.185Z,19.90
2022-07-29T19:05:39.321Z,19.80
2022-07-29T19:08:06.772Z,19.70
2022-07-29T19:10:33.848Z,19.60
2022-07-29T19:13:01.099Z,19.50
2022-07-29T19:15:28.188Z,19.50
2022-07-29T19:18:00.545Z,19.40
2022-07-29T19:20:28.445Z,19.40
2022-07-29T19:22:55.465Z,19.30
2022-07-29T19:25:23.453Z,19.30
2022-07-29T19:27:50.548Z,19.30
2022-07-29T19:30:17.558Z,19.30
2022-07-29T19:32:44.576Z,19.30
2022-07-29T19:35:31.681Z,19.30
2022-07-29T19:38:00.407Z,19.20
2022-07-29T19:40:27.952Z,19.10
2022-07-29T19:42:55.373Z,19.10
2022-07-29T19:45:26.228Z,19.00
2022-07-29T19:47:57.679Z,19.00
2022-07-29T19:50:27.917Z,19.00
2022-07-29T19:52:54.926Z,18.90
2022-07-29T19:55:22.497Z,18.80
2022-07-29T19:57:49.921Z,18.80
2022-07-29T20:00:17.411Z,18.80
2022-07-29T20:02:48.293Z,18.80
2022-07-29T20:05:15.627Z,18.80
2022-07-29T20:11:23.564Z,18.60
2022-07-29T20:13:50.738Z,18.50
2022-07-29T20:16:17.809Z,18.40
2022-07-29T20:18:44.872Z,18.40
2022-07-29T20:21:11.909Z,18.30
2022-07-29T20:23:38.954Z,18.30
2022-07-29T20:26:09.393Z,18.30
2022-07-29T20:28:37.440Z,18.30
2022-07-29T20:31:04.506Z,18.20
2022-07-29T20:33:31.634Z,18.30
2022-07-29T20:35:58.686Z,18.20
2022-07-29T20:38:25.614Z,18.10
2022-07-29T20:40:54.578Z,18.00
2022-07-29T20:43:21.595Z,18.10
2022-07-29T20:45:48.824Z,18.00
2022-07-29T20:48:15.927Z,18.00
2022-07-29T20:50:43.518Z,17.90
2022-07-29T20:53:10.850Z,17.80
2022-07-29T20:55:38.683Z,17.90
2022-07-29T20:58:05.684Z,17.70
2022-07-29T21:00:32.771Z,17.60
2022-07-29T21:03:00.042Z,17.60
2022-07-29T21:05:27.212Z,17.60
2022-07-29T21:07:57.998Z,17.60
2022-07-29T21:10:25.964Z,17.50
2022-07-29T21:12:53.011Z,17.50
2022-07-29T21:15:21.844Z,17.50
2022-07-29T21:17:49.125Z,17.40
2022-07-29T21:20:17.002Z,17.40
2022-07-29T21:22:44.263Z,17.30
2022-07-29T21:25:11.596Z,17.30
2022-07-29T21:27:56.881Z,17.30
2022-07-29T21:30:23.932Z,17.30
2022-07-29T21:32:51.088Z,17.30
2022-07-29T21:35:45.373Z,17.40
2022-07-29T21:38:05.264Z,17.50
2022-07-29T21:40:32.312Z,17.40
2022-07-29T21:42:59.326Z,17.40
2022-07-29T21:45:26.622Z,17.30
2022-07-29T21:47:53.698Z,17.30
2022-07-29T21:50:20.796Z,17.30
2022-07-29T21:52:48.137Z,17.30
2022-07-29T21:55:15.554Z,17.30
2022-07-29T21:57:45.642Z,17.30
2022-07-29T22:00:15.950Z,17.30
2022-07-29T22:02:43.761Z,17.30
2022-07-29T22:05:11.434Z,17.40
2022-07-29T22:07:54.305Z,17.40
2022-07-29T22:10:24.842Z,17.40
2022-07-29T22:12:52.904Z,17.30
2022-07-29T22:15:20.052Z,17.30
2022-07-29T22:17:47.931Z,17.20
2022-07-29T22:20:15.124Z,17.20
2022-07-29T22:22:42.216Z,17.10
2022-07-29T22:25:09.874Z,17.00
2022-07-29T22:27:37.110Z,16.80
2022-07-29T22:30:07.679Z,16.70
2022-07-29T22:32:34.956Z,16.70
2022-07-29T22:35:02.021Z,16.80
2022-07-29T22:37:29.141Z,16.70
2022-07-29T22:39:56.397Z,16.70
2022-07-29T22:42:23.473Z,16.70
2022-07-29T22:44:50.555Z,16.70
2022-07-29T22:47:17.687Z,16.70
2022-07-29T22:50:05.105Z,16.70
2022-07-29T22:52:32.166Z,16.70
2022-07-29T22:54:59.254Z,16.70
2022-07-29T22:57:26.640Z,16.70
2022-07-29T22:59:53.729Z,16.70
2022-07-29T23:02:20.901Z,16.80
2022-07-29T23:04:47.973Z,16.80
2022-07-29T23:07:15.055Z,16.80
2022-07-29T23:09:42.069Z,16.80
2022-07-29T23:12:09.290Z,16.70
2022-07-29T23:14:36.363Z,16.70
2022-07-29T23:17:04.126Z,16.60
2022-07-29T23:19:31.580Z,16.70
2022-07-29T23:21:58.577Z,16.60
2022-07-29T23:24:26.004Z,16.60
2022-07-29T23:26:53.285Z,16.50
2022-07-29T23:29:20.333Z,16.50
2022-07-29T23:31:48.310Z,16.60
2022-07-29T23:34:15.586Z,16.70
2022-07-29T23:36:42.742Z,16.80
2022-07-29T23:39:11.490Z,16.90
2022-07-29T23:41:38.621Z,16.80
2022-07-29T23:44:05.749Z,16.70
2022-07-29T23:46:32.804Z,16.70
2022-07-29T23:49:00.097Z,16.60
2022-07-29T23:51:29.378Z,16.70
2022-07-29T23:53:56.609Z,16.70
2022-07-29T23:56:23.746Z,16.60
2022-07-29T23:58:50.829Z,16.60
